x

Molasses Reef, Fl (mlrf1) Weather Station

1:00am - Mon 26th Jan 2015 All times are EST. -5 hours from GMT.

  • Wind
    13mph, 14mph gusts
  • Sea Temp 75°f
  • Air Temp 64°f
  • Sea Pressure 1015.8mb
  • Molasses Reef, Fl
  • Molasses Reef, Fl

More Historic Weather Station data

Upgrade to MSW Pro to gain access to the past 30 days of data for over 8000 Wavebouys and Weather Stations around the globe.

Join Pro

Comparision Forecast

View Surf forecast
   
Mon 01/26 1:00am 13 14 mph 1015.8mb 75f 64f
12:00am 15 17 mph 1016.9mb 75f 64f
Sun 01/25 11:00pm 17 20 mph 1017.8mb 75f 64f
10:00pm 13 14 mph 1017.5mb 75f 65f
9:00pm 11 14 mph 1017.6mb 75f 64f
8:00pm 9 11 mph 1017mb 75f 65f
7:00pm 7 8 mph 1016.7mb 75f 65f
6:00pm 2 3 mph 1015.8mb 75f 65f
5:00pm 2
mph
1015.9mb 75f 66f
4:00pm 5 7 mph 1015.8mb 75f 65f
3:00pm 7 9 mph 1016mb 75f 64f
2:00pm 9 10 mph 1016.8mb 75f 63f
1:00pm 10 11 mph 1017.5mb 74f 62f
12:00pm 14 15 mph 1018.8mb 74f 60f
11:00am 16 18 mph 1018.9mb 74f 59f
10:00am 20 23 mph 1019.1mb 74f 58f
9:00am 18 22 mph 1018.8mb 74f 57f
8:00am 20 22 mph 1018.3mb 74f 57f
7:00am 17 20 mph 1018mb 74f 57f
6:00am 17 20 mph 1017.2mb 74f 58f
5:00am 17 20 mph 1016.8mb 75f 59f
4:00am 18 21 mph 1016.8mb 74f 60f
3:00am 21 23 mph 1016.6mb 74f 60f
2:00am 17 20 mph 1016.5mb 75f 61f
1:00am 20 22 mph 1016.4mb 75f 62f
12:00am 20 21 mph 1016.4mb 75f 64f
Sat 01/24 11:00pm 22 25 mph 1016.5mb 75f 65f
10:00pm 22 23 mph 1016.2mb 75f 65f
9:00pm 24 28 mph 1015.9mb 76f 66f
8:00pm 21 23 mph 1015.6mb 76f 67f
7:00pm 28 31 mph 1014.9mb 75f 68f
6:00pm 24 26 mph 1014.2mb 76f 68f
5:00pm 24 26 mph 1013.4mb 76f 69f
4:00pm 22 24 mph 1013.1mb 76f 69f
3:00pm 23 25 mph 1013.3mb 76f 70f
2:00pm 28 30 mph 1013mb 76f 70f
1:00pm 23 26 mph 1013.4mb 76f 73f
12:00pm 22 25 mph 1014.6mb 76f 76f
11:00am 22 23 mph 1015.1mb 76f 76f
10:00am 24 25 mph 1014.8mb 76f 76f
9:00am 22 24 mph 1015.3mb 76f 77f
8:00am 21 23 mph 1015.1mb 76f 77f
7:00am 22 24 mph 1014.4mb 76f 77f
6:00am 18 22 mph 1013.9mb 76f 76f
5:00am 18 21 mph 1013.7mb 76f 76f
4:00am 21 23 mph 1013.7mb 76f 76f
3:00am 21 23 mph 1014.1mb 76f 76f
2:00am 16 18 mph 1014.6mb 76f 76f
1:00am 18 21 mph 1015mb 77f 76f
12:00am 18 21 mph 1015.4mb 77f 76f
Fri 01/23 11:00pm 18 21 mph 1016.2mb 77f 76f
10:00pm 17 18 mph 1016.4mb 77f 76f
9:00pm 13 14 mph 1016.6mb 77f 76f
8:00pm 15 16 mph 1016.7mb 77f 76f
7:00pm 10 11 mph 1016.7mb 77f 76f
6:00pm 9 11 mph 1016.7mb 77f 76f
5:00pm 13 14 mph 1016.5mb 77f 76f
4:00pm 13 15 mph 1016.2mb 77f 76f
3:00pm 18 20 mph 1015.9mb 77f 75f
2:00pm 17 20 mph 1016.2mb 77f 75f
1:00pm 17 20 mph 1016.9mb 77f 75f
12:00pm 18 21 mph 1018.3mb 77f 74f
11:00am 21 23 mph 1019mb 77f 74f
10:00am 22 24 mph 1019.2mb 77f 74f
9:00am 21 23 mph 1019mb 77f 74f
8:00am 21 22 mph 1019mb 77f 74f
7:00am 22 24 mph 1018.6mb 77f 74f
6:00am 21 24 mph 1018.4mb 77f 74f
5:00am 22 24 mph 1018.1mb 77f 74f
4:00am 22 24 mph 1018.4mb 77f 74f
3:00am 20 24 mph 1018.6mb 77f 74f
2:00am 24 28 mph 1018.7mb 77f 74f
1:00am 23 25 mph 1019.3mb 77f 75f
12:00am 22 25 mph 1019.7mb 77f 75f
Thu 01/22 11:00pm 22 23 mph 1020.6mb 77f 75f
10:00pm 20 23 mph 1020.8mb 77f 75f
9:00pm 18 21 mph 1020.5mb 77f 75f
8:00pm 17 21 mph 1020.5mb 77f 75f
7:00pm 21 22 mph 1020mb 77f 75f
6:00pm 18 21 mph 1019.9mb 77f 75f
5:00pm 18 22 mph 1019.5mb 78f 75f
4:00pm 20 21 mph 1019.1mb 78f 75f
3:00pm 14 15 mph 1019.4mb 78f 76f
2:00pm 14 15 mph 1019.6mb 77f 75f
1:00pm 15 16 mph 1020mb 77f 75f
12:00pm 15 16 mph 1020.9mb 77f 75f
11:00am 14 15 mph 1021.6mb 78f 75f
10:00am 15 16 mph 1021.8mb 78f 75f
9:00am 15 16 mph 1021.1mb 77f 75f
8:00am 15 17 mph 1020.2mb 77f 75f